createdAt,value
2022-10-10T00:00:08.693Z,3.30
2022-10-10T00:02:37.533Z,2.80
2022-10-10T00:05:07.488Z,2.57
2022-10-10T00:07:35.196Z,2.70
2022-10-10T00:10:03.934Z,2.77
2022-10-10T00:12:31.526Z,2.63
2022-10-10T00:14:59.160Z,2.43
2022-10-10T00:17:26.764Z,2.73
2022-10-10T00:19:54.447Z,2.80
2022-10-10T00:22:24.444Z,2.87
2022-10-10T00:24:52.146Z,3.00
2022-10-10T00:27:19.768Z,2.17
2022-10-10T00:29:47.357Z,2.53
2022-10-10T00:32:15.068Z,3.23
2022-10-10T00:34:42.708Z,2.77
2022-10-10T00:37:10.352Z,2.77
2022-10-10T00:39:39.284Z,2.77
2022-10-10T00:42:07.348Z,2.73
2022-10-10T00:44:35.170Z,2.60
2022-10-10T00:47:02.750Z,2.30
2022-10-10T00:49:31.896Z,2.63
2022-10-10T00:52:01.169Z,2.60
2022-10-10T00:54:30.167Z,2.73
2022-10-10T00:57:05.137Z,2.80
2022-10-10T00:59:34.879Z,2.60
2022-10-10T01:02:02.737Z,2.70
2022-10-10T01:04:33.624Z,3.00
2022-10-10T01:07:04.617Z,2.97
2022-10-10T01:09:33.510Z,2.50
2022-10-10T01:12:17.229Z,2.83
2022-10-10T01:14:52.927Z,2.63
2022-10-10T01:17:27.238Z,2.30
2022-10-10T01:20:28.952Z,3.40
2022-10-10T01:23:36.935Z,2.87
2022-10-10T01:26:19.756Z,2.57
2022-10-10T01:28:56.315Z,2.40
2022-10-10T01:31:26.495Z,2.47
2022-10-10T01:34:05.026Z,2.70
2022-10-10T01:36:39.955Z,2.80
2022-10-10T01:39:14.713Z,2.43
2022-10-10T01:41:48.576Z,3.23
2022-10-10T01:44:20.619Z,2.80
2022-10-10T01:46:48.439Z,2.43
2022-10-10T01:49:16.435Z,3.00
2022-10-10T01:51:58.070Z,2.83
2022-10-10T01:54:40.433Z,2.40
2022-10-10T01:57:20.661Z,2.63
2022-10-10T02:00:01.602Z,3.10
2022-10-10T02:02:40.621Z,2.93
2022-10-10T02:05:16.471Z,3.20
2022-10-10T02:07:49.806Z,3.40
2022-10-10T02:10:22.478Z,2.90
2022-10-10T02:12:51.584Z,2.77
2022-10-10T02:15:23.782Z,4.30
2022-10-10T02:17:53.987Z,2.80
2022-10-10T02:20:26.757Z,2.77
2022-10-10T02:22:55.652Z,3.10
2022-10-10T02:25:27.769Z,2.73
2022-10-10T02:28:05.491Z,3.10
2022-10-10T02:30:37.617Z,2.90
2022-10-10T02:33:08.397Z,3.00
2022-10-10T02:35:41.389Z,3.30
2022-10-10T02:38:12.065Z,3.20
2022-10-10T02:40:42.443Z,2.80
2022-10-10T02:43:12.016Z,2.90
2022-10-10T02:45:42.591Z,3.10
2022-10-10T02:48:10.626Z,3.17
2022-10-10T02:50:38.544Z,2.90
2022-10-10T02:53:06.207Z,3.17
2022-10-10T02:55:33.846Z,3.50
2022-10-10T02:58:01.486Z,3.27
2022-10-10T03:00:29.174Z,3.83
2022-10-10T03:02:58.266Z,3.10
2022-10-10T03:05:25.849Z,4.03
2022-10-10T03:07:53.531Z,2.90
2022-10-10T03:10:21.179Z,2.87
2022-10-10T03:12:49.217Z,3.20
2022-10-10T03:15:17.278Z,3.23
2022-10-10T03:17:45.331Z,3.10
2022-10-10T03:20:14.227Z,3.10
2022-10-10T03:22:41.790Z,3.40
2022-10-10T03:25:09.705Z,3.17
2022-10-10T03:27:37.342Z,3.40
2022-10-10T03:30:06.034Z,3.07
2022-10-10T03:32:33.668Z,3.07
2022-10-10T03:35:01.290Z,3.40
2022-10-10T03:37:30.252Z,3.47
2022-10-10T03:39:57.843Z,2.67
2022-10-10T03:42:25.682Z,3.27
2022-10-10T03:44:53.254Z,3.20
2022-10-10T03:47:20.986Z,3.20
2022-10-10T03:49:48.721Z,3.63
2022-10-10T03:52:16.532Z,3.60
2022-10-10T03:54:45.496Z,3.80
2022-10-10T03:57:13.076Z,3.27
2022-10-10T03:59:40.650Z,3.00
2022-10-10T04:02:08.515Z,2.63
2022-10-10T04:04:36.502Z,3.87
2022-10-10T04:07:04.091Z,3.50
2022-10-10T04:09:31.796Z,3.07
2022-10-10T04:12:01.646Z,3.20
2022-10-10T04:14:29.280Z,3.37
2022-10-10T04:16:59.758Z,3.20
2022-10-10T04:19:30.736Z,3.10
2022-10-10T04:21:58.406Z,3.60
2022-10-10T04:24:26.104Z,3.60
2022-10-10T04:26:53.805Z,3.37
2022-10-10T04:29:22.755Z,3.40
2022-10-10T04:31:50.369Z,3.77
2022-10-10T04:34:18.052Z,3.50
2022-10-10T04:36:45.641Z,3.60
2022-10-10T04:39:13.234Z,3.63
2022-10-10T04:41:40.937Z,4.00
2022-10-10T04:44:08.556Z,3.40
2022-10-10T04:46:37.600Z,3.33
2022-10-10T04:49:05.259Z,3.70
2022-10-10T04:51:32.981Z,3.97
2022-10-10T04:54:00.676Z,3.47
2022-10-10T04:56:28.616Z,3.27
2022-10-10T04:58:56.339Z,3.10
2022-10-10T05:01:24.114Z,3.43
2022-10-10T05:03:53.423Z,3.20
2022-10-10T05:06:21.138Z,3.70
2022-10-10T05:08:48.764Z,3.40
2022-10-10T05:11:16.524Z,3.73
2022-10-10T05:13:44.155Z,4.40
2022-10-10T05:16:12.151Z,3.57
2022-10-10T05:18:39.894Z,3.67
2022-10-10T05:21:10.824Z,3.50
2022-10-10T05:23:41.280Z,3.70
2022-10-10T05:26:09.786Z,4.20
2022-10-10T05:28:38.366Z,3.13
2022-10-10T05:31:06.887Z,3.00
2022-10-10T05:33:36.042Z,3.40
2022-10-10T05:36:06.161Z,3.60
2022-10-10T05:38:36.335Z,3.47
2022-10-10T05:41:04.425Z,3.60
2022-10-10T05:43:32.228Z,3.17
2022-10-10T05:45:59.883Z,3.80
2022-10-10T05:48:27.533Z,4.40
2022-10-10T05:50:56.773Z,3.70
2022-10-10T05:53:25.553Z,3.80
2022-10-10T05:55:54.811Z,4.00
2022-10-10T05:58:22.490Z,3.87
2022-10-10T06:00:50.527Z,3.97
2022-10-10T06:03:18.371Z,3.37
2022-10-10T06:05:48.709Z,3.70
2022-10-10T06:08:16.439Z,4.50
2022-10-10T06:10:46.895Z,3.80
2022-10-10T06:13:21.608Z,3.90
2022-10-10T06:15:52.700Z,4.07
2022-10-10T06:18:20.440Z,3.83
2022-10-10T06:20:48.038Z,3.77
2022-10-10T06:23:16.375Z,4.23
2022-10-10T06:25:44.043Z,4.10
2022-10-10T06:28:12.060Z,4.00
2022-10-10T06:30:48.351Z,4.30
2022-10-10T06:33:18.516Z,5.00
2022-10-10T06:35:47.891Z,3.40
2022-10-10T06:38:17.318Z,3.77
2022-10-10T06:40:45.231Z,4.17
2022-10-10T06:43:14.842Z,3.57
2022-10-10T06:45:46.198Z,3.70
2022-10-10T06:48:16.530Z,3.70
2022-10-10T06:50:55.966Z,3.63
2022-10-10T06:53:23.512Z,4.17
2022-10-10T06:55:51.187Z,3.83
2022-10-10T06:58:18.781Z,4.17
2022-10-10T07:00:51.878Z,4.33
2022-10-10T07:03:19.864Z,4.53
2022-10-10T07:05:51.132Z,4.30
2022-10-10T07:08:18.912Z,4.30
2022-10-10T07:10:47.148Z,4.30
2022-10-10T07:13:15.086Z,4.30
2022-10-10T07:15:43.677Z,4.20
2022-10-10T07:18:13.016Z,3.93
2022-10-10T07:20:41.395Z,4.00
2022-10-10T07:23:09.196Z,4.03
2022-10-10T07:25:39.291Z,4.30
2022-10-10T07:28:07.391Z,4.77
2022-10-10T07:30:41.011Z,3.63
2022-10-10T07:33:08.610Z,3.40
2022-10-10T07:35:37.760Z,3.30
2022-10-10T07:38:05.534Z,3.77
2022-10-10T07:40:33.383Z,3.77
2022-10-10T07:43:01.203Z,3.80
2022-10-10T07:45:28.885Z,4.10
2022-10-10T07:47:56.466Z,4.07
2022-10-10T07:50:25.957Z,3.87
2022-10-10T07:52:58.171Z,3.87
2022-10-10T07:55:26.857Z,3.70
2022-10-10T07:57:54.814Z,4.10
2022-10-10T08:00:22.750Z,3.70
2022-10-10T08:02:52.064Z,3.73
2022-10-10T08:05:19.739Z,4.30
2022-10-10T08:07:50.361Z,4.20
2022-10-10T08:10:19.901Z,4.70
2022-10-10T08:12:47.618Z,4.50
2022-10-10T08:15:15.294Z,5.70
2022-10-10T08:17:43.016Z,5.30
2022-10-10T08:20:11.336Z,3.83
2022-10-10T08:22:38.952Z,3.50
2022-10-10T08:25:08.037Z,3.10
2022-10-10T08:27:37.546Z,3.63
2022-10-10T08:30:06.177Z,4.10
2022-10-10T08:32:34.228Z,3.93
2022-10-10T08:35:02.013Z,4.40
2022-10-10T08:37:35.261Z,3.83
2022-10-10T08:40:06.850Z,3.77
2022-10-10T08:42:46.923Z,4.50
2022-10-10T08:45:20.684Z,4.67
2022-10-10T08:47:53.765Z,3.60
2022-10-10T08:50:26.181Z,4.70
2022-10-10T08:52:59.289Z,4.80
2022-10-10T08:55:33.104Z,4.23
2022-10-10T08:58:06.923Z,4.60
2022-10-10T09:00:41.067Z,4.40
2022-10-10T09:03:20.546Z,4.90
2022-10-10T09:06:04.957Z,4.60
2022-10-10T09:08:46.715Z,4.77
2022-10-10T09:11:26.653Z,4.50
2022-10-10T09:14:07.707Z,4.10
2022-10-10T09:16:41.172Z,4.53
2022-10-10T09:19:24.521Z,4.60
2022-10-10T09:21:56.152Z,4.97
2022-10-10T09:24:28.450Z,4.77
2022-10-10T09:27:02.096Z,4.50
2022-10-10T09:29:38.998Z,4.03
2022-10-10T09:32:13.211Z,3.90
2022-10-10T09:34:44.472Z,5.33
2022-10-10T09:37:29.477Z,3.90
2022-10-10T09:40:13.290Z,4.77
2022-10-10T09:42:52.284Z,4.00
2022-10-10T09:45:21.880Z,4.30
2022-10-10T09:47:54.172Z,4.07
2022-10-10T09:50:23.306Z,4.57
2022-10-10T09:52:52.743Z,4.20
2022-10-10T09:55:26.416Z,4.60
2022-10-10T09:57:59.098Z,4.30
2022-10-10T10:00:34.138Z,4.00
2022-10-10T10:03:07.695Z,3.40
2022-10-10T10:05:36.213Z,3.73
2022-10-10T10:08:03.936Z,3.70
2022-10-10T10:10:36.543Z,4.30
2022-10-10T10:13:14.347Z,3.70
2022-10-10T10:15:50.197Z,3.97
2022-10-10T10:18:27.705Z,4.13
2022-10-10T10:21:10.113Z,4.37
2022-10-10T10:23:43.510Z,4.00
2022-10-10T10:26:19.900Z,3.60
2022-10-10T10:28:50.444Z,3.30
2022-10-10T10:31:29.033Z,3.63
2022-10-10T10:34:07.740Z,4.00
2022-10-10T10:36:46.113Z,3.30
2022-10-10T10:39:27.397Z,3.33
2022-10-10T10:42:01.194Z,3.03
2022-10-10T10:44:40.967Z,4.37
2022-10-10T10:47:23.250Z,3.57
2022-10-10T10:50:07.001Z,4.10
2022-10-10T10:52:49.136Z,3.73
2022-10-10T10:55:26.949Z,4.53
2022-10-10T10:58:49.148Z,4.30
2022-10-10T11:01:38.612Z,4.23
2022-10-10T11:05:19.929Z,4.53
2022-10-10T11:07:17.864Z,4.30
2022-10-10T11:09:50.828Z,3.63
2022-10-10T11:12:38.764Z,3.90
2022-10-10T11:15:14.167Z,4.17
2022-10-10T11:17:48.169Z,4.10
2022-10-10T11:20:24.510Z,4.00
2022-10-10T11:22:59.587Z,4.60
2022-10-10T11:25:30.506Z,3.80
2022-10-10T11:28:05.214Z,4.40
2022-10-10T11:30:37.206Z,4.83
2022-10-10T11:33:13.603Z,4.20
2022-10-10T11:35:45.605Z,4.67
2022-10-10T11:38:21.532Z,4.07
2022-10-10T11:40:55.978Z,4.17
2022-10-10T11:43:35.971Z,4.70
2022-10-10T11:46:17.276Z,4.40
2022-10-10T11:48:55.664Z,4.60
2022-10-10T11:51:35.704Z,4.27
2022-10-10T11:54:09.934Z,5.00
2022-10-10T11:56:42.086Z,3.97
2022-10-10T11:59:16.415Z,3.70
2022-10-10T12:01:49.390Z,3.80
2022-10-10T12:04:18.899Z,4.77
2022-10-10T12:06:52.073Z,4.37
2022-10-10T12:09:25.462Z,4.30
2022-10-10T12:11:57.733Z,4.10
2022-10-10T12:14:29.295Z,4.07
2022-10-10T12:17:08.192Z,3.80
2022-10-10T12:19:39.428Z,4.20
2022-10-10T12:22:12.595Z,4.80
2022-10-10T12:25:07.848Z,4.40
2022-10-10T12:27:46.699Z,4.70
2022-10-10T12:30:28.617Z,4.37
2022-10-10T12:32:56.766Z,3.80
2022-10-10T12:35:43.577Z,4.67
2022-10-10T12:38:23.202Z,4.43
2022-10-10T12:41:12.012Z,3.80
2022-10-10T12:43:46.632Z,4.63
2022-10-10T12:46:27.335Z,4.03
2022-10-10T12:49:00.959Z,3.80
2022-10-10T12:51:33.072Z,4.00
2022-10-10T12:54:03.674Z,3.60
2022-10-10T12:56:37.517Z,4.60
2022-10-10T12:59:07.283Z,3.90
2022-10-10T13:01:38.066Z,3.17
2022-10-10T13:04:06.084Z,3.47
2022-10-10T13:06:39.783Z,3.30
2022-10-10T13:09:10.312Z,3.33
2022-10-10T13:11:54.544Z,3.30
2022-10-10T13:14:22.160Z,3.30
2022-10-10T13:16:49.914Z,3.20
2022-10-10T13:19:20.701Z,3.80
2022-10-10T13:21:52.132Z,3.10
2022-10-10T13:24:22.035Z,5.50
2022-10-10T13:26:52.252Z,3.87
2022-10-10T13:29:25.839Z,4.17
2022-10-10T13:31:56.052Z,3.10
2022-10-10T13:34:27.449Z,3.50
2022-10-10T13:37:00.659Z,2.80
2022-10-10T13:39:30.676Z,4.53
2022-10-10T13:41:58.908Z,4.10
2022-10-10T13:44:32.333Z,3.53
2022-10-10T13:47:00.411Z,3.60
2022-10-10T13:49:29.389Z,3.80
2022-10-10T13:52:07.269Z,3.70
2022-10-10T13:54:40.142Z,3.43
2022-10-10T13:57:15.394Z,3.60
2022-10-10T13:59:43.722Z,3.70
2022-10-10T14:02:14.559Z,3.20
2022-10-10T14:04:48.820Z,3.87
2022-10-10T14:07:22.910Z,3.33
2022-10-10T14:09:54.215Z,3.27
2022-10-10T14:12:28.444Z,3.30
2022-10-10T14:14:57.771Z,3.10
2022-10-10T14:17:25.938Z,3.20
2022-10-10T14:19:53.958Z,3.50
2022-10-10T14:22:24.097Z,3.97
2022-10-10T14:24:51.781Z,3.57
2022-10-10T14:27:27.724Z,3.93
2022-10-10T14:29:57.128Z,2.80
2022-10-10T14:32:25.198Z,3.13
2022-10-10T14:34:54.941Z,3.57
2022-10-10T14:37:26.459Z,3.30
2022-10-10T14:39:55.414Z,3.33
2022-10-10T14:42:25.354Z,2.97
2022-10-10T14:44:53.302Z,3.70
2022-10-10T14:47:22.885Z,3.20
2022-10-10T14:49:52.482Z,3.50
2022-10-10T14:52:20.261Z,2.80
2022-10-10T14:54:49.864Z,3.80
2022-10-10T14:57:17.936Z,3.50
2022-10-10T14:59:49.166Z,2.90
2022-10-10T15:02:22.956Z,3.30
2022-10-10T15:04:51.563Z,3.50
2022-10-10T15:07:19.615Z,3.20
2022-10-10T15:10:27.875Z,3.10
2022-10-10T15:12:39.563Z,3.10
2022-10-10T15:15:08.656Z,3.07
2022-10-10T15:17:36.453Z,3.50
2022-10-10T15:20:06.221Z,3.43
2022-10-10T15:22:34.040Z,3.40
2022-10-10T15:25:03.100Z,2.90
2022-10-10T15:27:32.597Z,3.20
2022-10-10T15:30:00.648Z,3.47
2022-10-10T15:32:28.637Z,3.20
2022-10-10T15:34:57.393Z,2.50
2022-10-10T15:37:25.942Z,3.33
2022-10-10T15:39:53.726Z,3.60
2022-10-10T15:42:23.607Z,2.70
2022-10-10T15:44:52.334Z,3.70
2022-10-10T15:47:21.195Z,3.13
2022-10-10T15:49:49.238Z,3.70
2022-10-10T15:52:18.868Z,3.50
2022-10-10T15:54:49.251Z,3.70
2022-10-10T15:57:18.662Z,3.90
2022-10-10T15:59:48.132Z,3.33
2022-10-10T16:02:15.794Z,3.90
2022-10-10T16:04:43.465Z,2.83
2022-10-10T16:07:29.864Z,2.80
2022-10-10T16:10:01.039Z,3.27
2022-10-10T16:12:28.912Z,3.03
2022-10-10T16:14:57.828Z,3.60
2022-10-10T16:17:25.503Z,3.10
2022-10-10T16:19:53.123Z,2.90
2022-10-10T16:22:21.137Z,2.60
2022-10-10T16:25:21.351Z,3.47
2022-10-10T16:27:37.296Z,3.37
2022-10-10T16:30:08.169Z,3.43
2022-10-10T16:32:41.766Z,3.60
2022-10-10T16:35:12.395Z,3.70
2022-10-10T16:37:40.499Z,3.90
2022-10-10T16:40:09.457Z,3.73
2022-10-10T16:42:37.251Z,3.87
2022-10-10T16:45:07.535Z,3.90
2022-10-10T16:47:35.476Z,4.40
2022-10-10T16:50:03.117Z,3.87
2022-10-10T16:52:30.770Z,4.37
2022-10-10T16:54:58.364Z,4.63
2022-10-10T16:57:27.040Z,3.90
2022-10-10T16:59:54.928Z,5.53
2022-10-10T17:02:24.953Z,4.90
2022-10-10T17:04:53.224Z,4.90
2022-10-10T17:07:20.914Z,5.20
2022-10-10T17:09:48.552Z,4.53
2022-10-10T17:12:16.359Z,5.17
2022-10-10T17:14:46.553Z,4.33
2022-10-10T17:17:14.259Z,4.43
2022-10-10T17:19:43.398Z,4.40
2022-10-10T17:22:11.319Z,5.67
2022-10-10T17:24:39.005Z,3.60
2022-10-10T17:27:06.717Z,4.57
2022-10-10T17:29:34.492Z,4.47
2022-10-10T17:32:06.334Z,5.00
2022-10-10T17:34:35.242Z,4.73
2022-10-10T17:37:05.916Z,4.77
2022-10-10T17:39:34.107Z,4.40
2022-10-10T17:42:01.809Z,5.10
2022-10-10T17:44:29.522Z,4.30
2022-10-10T17:46:57.165Z,5.10
2022-10-10T17:49:25.102Z,5.47
2022-10-10T17:51:52.746Z,6.17
2022-10-10T17:54:21.799Z,8.07
2022-10-10T17:56:49.371Z,6.17
2022-10-10T17:59:17.029Z,10.00
2022-10-10T18:01:44.741Z,5.33
2022-10-10T18:04:16.296Z,5.10
2022-10-10T18:06:44.003Z,5.90
2022-10-10T18:09:12.154Z,6.33
2022-10-10T18:11:42.185Z,6.33
2022-10-10T18:14:09.884Z,5.70
2022-10-10T18:16:37.974Z,6.10
2022-10-10T18:19:07.310Z,6.73
2022-10-10T18:21:36.121Z,7.13
2022-10-10T18:24:04.024Z,8.90
2022-10-10T18:26:32.531Z,7.10
2022-10-10T18:29:01.465Z,6.50
2022-10-10T18:31:31.015Z,5.90
2022-10-10T18:33:58.801Z,5.73
2022-10-10T18:36:29.409Z,6.43
2022-10-10T18:38:59.540Z,6.63
2022-10-10T18:41:33.698Z,6.40
2022-10-10T18:44:07.598Z,7.23
2022-10-10T18:46:36.063Z,7.43
2022-10-10T18:49:05.740Z,8.23
2022-10-10T18:51:33.984Z,10.10
2022-10-10T18:54:03.849Z,7.70
2022-10-10T18:56:40.621Z,9.23
2022-10-10T18:59:13.205Z,7.07
2022-10-10T19:01:41.329Z,7.73
2022-10-10T19:04:11.532Z,6.83
2022-10-10T19:06:41.652Z,6.20
2022-10-10T19:09:11.734Z,7.57
2022-10-10T19:11:41.436Z,6.20
2022-10-10T19:14:12.363Z,6.67
2022-10-10T19:16:40.986Z,5.70
2022-10-10T19:19:08.730Z,5.87
2022-10-10T19:21:38.567Z,6.83
2022-10-10T19:24:08.626Z,5.70
2022-10-10T19:26:37.149Z,5.50
2022-10-10T19:29:07.354Z,7.30
2022-10-10T19:31:37.373Z,9.20
2022-10-10T19:34:05.760Z,8.17
2022-10-10T19:36:36.153Z,7.40
2022-10-10T19:39:06.501Z,6.10
2022-10-10T19:41:35.916Z,6.53
2022-10-10T19:44:05.753Z,6.63
2022-10-10T19:46:37.222Z,6.07
2022-10-10T19:49:09.020Z,5.80
2022-10-10T19:51:36.993Z,5.13
2022-10-10T19:54:04.781Z,5.57
2022-10-10T19:56:32.454Z,5.90
2022-10-10T19:59:04.132Z,4.80
2022-10-10T20:01:32.346Z,5.40
2022-10-10T20:04:00.410Z,5.40
2022-10-10T20:06:29.641Z,4.50
2022-10-10T20:08:57.282Z,5.13
2022-10-10T20:11:26.195Z,5.20
2022-10-10T20:13:55.164Z,4.67
2022-10-10T20:16:23.769Z,4.37
2022-10-10T20:18:51.649Z,4.50
2022-10-10T20:21:22.025Z,4.37
2022-10-10T20:23:51.503Z,5.07
2022-10-10T20:26:22.367Z,3.67
2022-10-10T20:28:51.071Z,4.27
2022-10-10T20:31:21.096Z,4.87
2022-10-10T20:33:49.920Z,4.10
2022-10-10T20:36:18.678Z,3.97
2022-10-10T20:38:46.672Z,4.17
2022-10-10T20:41:15.959Z,3.80
2022-10-10T20:43:43.785Z,3.67
2022-10-10T20:46:13.397Z,4.23
2022-10-10T20:48:42.109Z,4.30
2022-10-10T20:51:11.924Z,4.17
2022-10-10T20:53:42.376Z,4.40
2022-10-10T20:56:12.846Z,3.93
2022-10-10T20:58:41.827Z,3.87
2022-10-10T21:01:12.456Z,3.60
2022-10-10T21:03:41.673Z,4.40
2022-10-10T21:06:11.532Z,3.50
2022-10-10T21:08:40.005Z,3.40
2022-10-10T21:11:09.589Z,3.40
2022-10-10T21:13:39.809Z,3.20
2022-10-10T21:16:11.344Z,3.93
2022-10-10T21:18:39.561Z,3.50
2022-10-10T21:21:08.334Z,3.40
2022-10-10T21:23:37.461Z,4.20
2022-10-10T21:26:06.920Z,3.30
2022-10-10T21:28:35.475Z,4.17
2022-10-10T21:31:03.871Z,2.97
2022-10-10T21:33:33.027Z,3.03
2022-10-10T21:36:01.735Z,3.50
2022-10-10T21:38:30.474Z,3.50
2022-10-10T21:40:58.265Z,3.70
2022-10-10T21:43:26.140Z,3.90
2022-10-10T21:45:53.867Z,3.73
2022-10-10T21:48:21.588Z,3.57
2022-10-10T21:50:50.599Z,3.93
2022-10-10T21:53:18.408Z,4.20
2022-10-10T21:55:46.110Z,4.20
2022-10-10T21:58:13.787Z,3.50
2022-10-10T22:00:41.576Z,3.73
2022-10-10T22:03:09.452Z,3.60
2022-10-10T22:05:37.650Z,3.30
2022-10-10T22:08:06.730Z,3.50
2022-10-10T22:10:35.341Z,3.20
2022-10-10T22:13:04.032Z,3.73
2022-10-10T22:15:31.737Z,3.50
2022-10-10T22:17:59.309Z,3.60
2022-10-10T22:20:26.917Z,3.93
2022-10-10T22:22:54.543Z,3.53
2022-10-10T22:25:23.580Z,3.83
2022-10-10T22:27:55.103Z,3.83
2022-10-10T22:30:24.641Z,3.80
2022-10-10T22:32:52.233Z,3.80
2022-10-10T22:35:19.833Z,4.10
2022-10-10T22:37:47.474Z,3.63
2022-10-10T22:40:16.370Z,4.20
2022-10-10T22:42:45.992Z,3.90
2022-10-10T22:45:13.565Z,4.30
2022-10-10T22:47:41.209Z,4.00
2022-10-10T22:50:10.000Z,4.30
2022-10-10T22:52:38.090Z,4.20
2022-10-10T22:55:07.549Z,4.63
2022-10-10T22:57:35.771Z,4.30
2022-10-10T23:00:06.009Z,3.73
2022-10-10T23:02:33.656Z,3.87
2022-10-10T23:05:02.818Z,3.70
2022-10-10T23:07:30.491Z,4.10
2022-10-10T23:09:58.082Z,4.37
2022-10-10T23:12:25.965Z,4.23
2022-10-10T23:14:53.696Z,4.50
2022-10-10T23:17:22.571Z,4.40
2022-10-10T23:19:50.164Z,4.60
2022-10-10T23:22:18.418Z,3.90
2022-10-10T23:24:46.995Z,4.17
2022-10-10T23:27:14.719Z,4.10
2022-10-10T23:29:42.480Z,4.67
2022-10-10T23:32:10.090Z,4.47
2022-10-10T23:34:39.015Z,4.60
2022-10-10T23:37:09.007Z,4.60
2022-10-10T23:39:36.657Z,4.23
2022-10-10T23:42:05.438Z,5.70
2022-10-10T23:44:33.111Z,4.63
2022-10-10T23:47:00.659Z,5.10
2022-10-10T23:49:28.541Z,4.77
2022-10-10T23:51:57.622Z,5.80
2022-10-10T23:54:25.342Z,5.20
2022-10-10T23:56:53.266Z,5.30
2022-10-10T23:59:20.915Z,5.60
